Time;durP1;ratioP1;P1;durP2;ratioP2;P2;SDS_P1;SDS_P2;PMS_P1;PMS_P2;Temp;Humidity;BMP_temperature;BMP_pressure;BME280_temperature;BME280_humidity;BME280_pressure;Samples;Min_cycle;Max_cycle;Signal;HPM_P1;HPM_P2
2021/08/01 00:01:47;;;;;;;0.40;0.30;;;;;;;18.57;93.74;99577.56;4967531;28;20488;-56
2021/08/01 00:04:15;;;;;;;0.40;0.20;;;;;;;18.26;94.03;99569.03;4967153;28;20463;-56
2021/08/01 00:06:42;;;;;;;0.40;0.20;;;;;;;17.82;97.11;99568.59;4975046;28;20488;-55
2021/08/01 00:09:09;;;;;;;0.93;0.93;;;;;;;17.97;96.40;99568.41;4974261;28;20481;-56
2021/08/01 00:11:35;;;;;;;0.40;0.30;;;;;;;17.86;97.96;99551.31;4967421;28;20455;-56
2021/08/01 00:14:02;;;;;;;0.40;0.20;;;;;;;17.72;98.59;99552.28;4965060;28;20460;-55
2021/08/01 00:16:29;;;;;;;0.50;0.50;;;;;;;17.98;97.35;99551.31;4974677;28;20545;-56
2021/08/01 00:18:57;;;;;;;0.40;0.20;;;;;;;18.10;96.68;99551.41;4974909;28;20800;-56
2021/08/01 00:21:24;;;;;;;0.40;0.20;;;;;;;17.96;97.33;99549.69;4963127;28;20458;-56
2021/08/01 00:23:51;;;;;;;0.40;0.20;;;;;;;17.98;97.24;99545.94;4974599;28;20999;-56
2021/08/01 00:26:18;;;;;;;0.40;0.20;;;;;;;17.96;97.49;99541.63;4974528;28;21003;-56
2021/08/01 00:28:44;;;;;;;2.87;0.77;;;;;;;18.00;97.38;99543.97;4974632;28;20827;-56
2021/08/01 00:31:11;;;;;;;0.40;0.20;;;;;;;18.08;97.34;99539.88;4965424;28;20463;-56
2021/08/01 00:33:38;;;;;;;0.40;0.20;;;;;;;18.00;96.36;99548.50;4974446;28;20550;-56
2021/08/01 00:36:04;;;;;;;0.53;0.47;;;;;;;17.75;98.07;99539.47;4970498;28;20446;-56
2021/08/01 00:38:31;;;;;;;0.40;0.20;;;;;;;17.91;96.78;99536.56;4970922;28;20482;-53
2021/08/01 00:40:58;;;;;;;0.40;0.20;;;;;;;17.92;95.75;99540.97;4964971;28;20454;-53
2021/08/01 00:43:25;;;;;;;0.40;0.20;;;;;;;17.88;95.98;99533.22;4969924;28;20537;-53
2021/08/01 00:45:51;;;;;;;0.40;0.20;;;;;;;17.93;95.73;99542.69;4954830;28;20503;-53
2021/08/01 00:48:18;;;;;;;0.40;0.30;;;;;;;17.91;96.76;99549.13;4973478;28;20565;-53
2021/08/01 00:50:45;;;;;;;0.40;0.20;;;;;;;17.89;96.59;99541.19;4966609;28;20457;-53
2021/08/01 00:53:12;;;;;;;10.83;1.70;;;;;;;17.83;96.75;99549.69;4974565;28;20578;-53
2021/08/01 00:55:40;;;;;;;2.10;2.00;;;;;;;17.74;97.50;99544.97;4974635;28;20450;-53
2021/08/01 00:58:08;;;;;;;5.13;0.73;;;;;;;17.71;97.49;99550.56;4971337;28;21015;-53
2021/08/01 01:03:42;;;;;;;0.40;0.20;;;;;;;17.70;96.83;99533.56;4948700;28;20486;-54
2021/08/01 01:06:41;;;;;;;0.40;0.30;;;;;;;17.71;96.95;99529.91;4973885;28;20461;-53
2021/08/01 01:09:36;;;;;;;0.40;0.20;;;;;;;17.88;96.40;99538.59;4969586;28;20455;-53
2021/08/01 01:12:08;;;;;;;0.40;0.20;;;;;;;17.87;96.41;99543.13;4973869;28;20512;-53
2021/08/01 01:14:40;;;;;;;0.40;0.20;;;;;;;17.83;96.40;99540.78;4967929;28;20447;-53
2021/08/01 01:17:12;;;;;;;0.40;0.20;;;;;;;17.77;96.39;99533.97;4973124;28;20522;-53
2021/08/01 01:20:00;;;;;;;0.77;0.37;;;;;;;17.79;96.88;99523.97;4970699;28;20463;-54
2021/08/01 01:22:41;;;;;;;0.50;0.30;;;;;;;17.73;97.60;99524.41;4955084;28;20458;-53
2021/08/01 01:25:26;;;;;;;0.70;0.70;;;;;;;17.83;96.63;99522.81;4954086;28;20820;-54
2021/08/01 01:28:07;;;;;;;0.40;0.20;;;;;;;17.84;96.01;99520.97;4963216;28;20470;-53
2021/08/01 01:30:38;;;;;;;0.40;0.30;;;;;;;17.79;97.35;99525.81;4946171;28;20519;-53
2021/08/01 01:33:08;;;;;;;0.40;0.20;;;;;;;17.70;97.21;99527.34;4956114;28;20466;-53
2021/08/01 01:35:38;;;;;;;0.40;0.20;;;;;;;17.71;97.70;99526.38;4957714;28;20466;-53
2021/08/01 01:38:07;;;;;;;0.40;0.20;;;;;;;17.83;97.15;99517.44;4956744;28;21067;-54
2021/08/01 01:40:35;;;;;;;0.40;0.20;;;;;;;17.77;97.33;99521.41;4957325;28;20510;-52
2021/08/01 01:43:06;;;;;;;0.40;0.30;;;;;;;17.76;97.30;99524.19;4957859;28;20952;-53
2021/08/01 01:45:35;;;;;;;0.40;0.20;;;;;;;17.72;97.61;99531.63;4952423;28;20464;-53
2021/08/01 01:48:02;;;;;;;10.13;1.40;;;;;;;17.73;97.50;99535.19;4954904;28;20476;-54
2021/08/01 01:50:29;;;;;;;0.40;0.20;;;;;;;17.63;98.65;99532.22;4956612;28;20517;-54
2021/08/01 01:52:56;;;;;;;0.40;0.20;;;;;;;17.64;98.24;99533.94;4948536;28;20466;-53
2021/08/01 01:55:23;;;;;;;0.40;0.20;;;;;;;17.55;99.41;99533.75;4953326;28;20862;-54
2021/08/01 01:57:51;;;;;;;0.50;0.40;;;;;;;17.70;98.28;99536.25;4954814;28;20495;-54
2021/08/01 02:00:18;;;;;;;0.50;0.30;;;;;;;17.66;98.34;99549.97;4949940;28;20460;-53
2021/08/01 02:02:45;;;;;;;0.40;0.30;;;;;;;17.61;98.60;99544.91;4948176;28;20464;-53
2021/08/01 02:05:12;;;;;;;0.50;0.47;;;;;;;17.62;99.24;99538.56;4954246;28;20459;-53
2021/08/01 02:07:39;;;;;;;0.40;0.20;;;;;;;17.65;98.36;99542.88;4956072;28;20534;-53
2021/08/01 02:10:24;;;;;;;0.40;0.20;;;;;;;17.57;98.64;99538.03;4949160;28;20525;-53
2021/08/01 02:12:54;;;;;;;0.40;0.20;;;;;;;17.47;99.04;99545.88;4954399;28;20967;-53
2021/08/01 02:15:59;;;;;;;0.63;0.60;;;;;;;17.71;96.52;99540.66;4954335;28;20455;-54
2021/08/01 02:18:35;;;;;;;0.40;0.20;;;;;;;17.50;96.88;99539.41;4924238;28;20569;-53
2021/08/01 02:21:03;;;;;;;0.50;0.40;;;;;;;17.57;95.70;99548.78;4960490;28;21687;-53
2021/08/01 02:23:35;;;;;;;0.40;0.20;;;;;;;17.70;94.79;99551.53;4958360;28;20455;-53
2021/08/01 02:26:03;;;;;;;0.40;0.20;;;;;;;17.65;94.43;99550.94;4953662;28;20861;-55
2021/08/01 02:28:32;;;;;;;0.40;0.20;;;;;;;17.49;95.48;99553.81;4955768;28;20499;-55
2021/08/01 02:31:01;;;;;;;0.40;0.20;;;;;;;17.33;97.71;99547.78;4960914;28;20509;-55
2021/08/01 02:33:28;;;;;;;0.40;0.20;;;;;;;17.30;98.35;99540.81;4957335;28;20455;-55
2021/08/01 02:36:02;;;;;;;0.40;0.20;;;;;;;17.38;98.17;99535.75;4964478;28;20450;-55
2021/08/01 02:38:29;;;;;;;16.23;0.80;;;;;;;17.41;98.40;99534.69;4958065;28;20980;-55
2021/08/01 02:41:01;;;;;;;0.40;0.20;;;;;;;17.38;97.94;99551.00;4958388;28;20513;-55
2021/08/01 02:43:31;;;;;;;2.53;0.80;;;;;;;17.27;99.28;99534.75;4963745;28;20458;-55
2021/08/01 02:45:58;;;;;;;0.40;0.20;;;;;;;17.44;98.21;99535.34;4959311;28;20456;-55
2021/08/01 02:48:28;;;;;;;0.40;0.20;;;;;;;17.23;98.79;99538.63;4950289;28;20891;-55
2021/08/01 02:51:01;;;;;;;0.40;0.20;;;;;;;17.23;99.33;99535.94;4958405;28;20456;-56
2021/08/01 02:53:30;;;;;;;0.40;0.30;;;;;;;17.00;99.66;99530.31;4959601;28;20883;-53
2021/08/01 02:56:00;;;;;;;0.50;0.40;;;;;;;16.91;100.00;99540.81;4959633;28;20488;-55
2021/08/01 02:58:28;;;;;;;0.40;0.30;;;;;;;16.92;100.00;99547.88;4961698;28;20525;-55
2021/08/01 03:00:57;;;;;;;0.40;0.20;;;;;;;17.03;100.00;99543.53;4950161;28;20451;-55
2021/08/01 03:03:26;;;;;;;0.40;0.20;;;;;;;17.04;99.99;99556.00;4959203;28;20898;-55
2021/08/01 03:05:53;;;;;;;0.50;0.50;;;;;;;17.12;99.50;99556.31;4950143;28;20511;-55
2021/08/01 03:08:21;;;;;;;0.40;0.20;;;;;;;17.18;99.84;99544.31;4962218;28;20531;-55
2021/08/01 03:10:51;;;;;;;0.40;0.20;;;;;;;17.24;99.78;99541.19;4957611;28;20455;-55
2021/08/01 03:13:18;;;;;;;0.40;0.20;;;;;;;17.15;100.00;99541.84;4954833;28;20460;-55
2021/08/01 03:15:45;;;;;;;0.40;0.20;;;;;;;17.01;100.00;99539.22;4956361;28;20518;-55
2021/08/01 03:18:11;;;;;;;0.40;0.20;;;;;;;16.75;100.00;99547.19;4958715;28;20503;-55
2021/08/01 03:20:38;;;;;;;0.50;0.30;;;;;;;16.85;100.00;99542.91;4954890;28;20525;-55
2021/08/01 03:23:05;;;;;;;0.40;0.20;;;;;;;16.81;100.00;99548.59;4953043;28;20463;-55
2021/08/01 03:25:34;;;;;;;0.40;0.20;;;;;;;16.63;100.00;99547.97;4949316;28;20454;-55
2021/08/01 03:28:02;;;;;;;0.40;0.20;;;;;;;16.51;100.00;99559.50;4956107;28;21012;-55
2021/08/01 03:30:29;;;;;;;0.40;0.20;;;;;;;16.77;100.00;99557.81;4962636;28;20878;-56
2021/08/01 03:32:56;;;;;;;0.40;0.20;;;;;;;16.45;100.00;99550.03;4954655;28;20890;-55
2021/08/01 03:35:23;;;;;;;1.07;0.50;;;;;;;16.43;100.00;99549.25;4952450;28;20518;-55
2021/08/01 03:37:50;;;;;;;0.40;0.20;;;;;;;16.60;100.00;99553.53;4957323;28;20539;-55
2021/08/01 03:40:17;;;;;;;0.40;0.30;;;;;;;16.65;100.00;99562.13;4961462;28;20458;-55
2021/08/01 03:42:44;;;;;;;0.40;0.20;;;;;;;16.38;100.00;99554.03;4953367;28;20463;-55
2021/08/01 03:45:11;;;;;;;0.40;0.30;;;;;;;16.26;100.00;99547.66;4956866;28;20455;-55
2021/08/01 03:47:38;;;;;;;0.67;0.67;;;;;;;15.99;100.00;99547.56;4955446;28;20844;-55
2021/08/01 03:50:05;;;;;;;0.40;0.20;;;;;;;16.25;100.00;99551.28;4954972;28;20823;-55
2021/08/01 03:52:32;;;;;;;0.40;0.20;;;;;;;16.48;100.00;99544.47;4955042;28;20521;-55
2021/08/01 03:54:59;;;;;;;0.40;0.20;;;;;;;16.57;100.00;99559.06;4960472;28;20457;-55
2021/08/01 03:57:26;;;;;;;0.40;0.20;;;;;;;16.59;100.00;99554.50;4948146;28;20523;-55
2021/08/01 03:59:52;;;;;;;0.40;0.30;;;;;;;16.51;100.00;99552.28;4951313;28;20452;-55
2021/08/01 04:02:19;;;;;;;0.40;0.20;;;;;;;16.52;100.00;99550.47;4953302;28;20816;-55
2021/08/01 04:04:46;;;;;;;0.40;0.20;;;;;;;16.03;100.00;99550.91;4961714;28;20879;-55
2021/08/01 04:07:12;;;;;;;0.40;0.30;;;;;;;16.23;100.00;99563.94;4955577;28;21058;-55
2021/08/01 04:09:39;;;;;;;0.40;0.20;;;;;;;16.33;100.00;99566.03;4952309;28;20458;-55
2021/08/01 04:12:06;;;;;;;0.70;0.67;;;;;;;16.36;100.00;99557.78;4960200;28;20455;-55
2021/08/01 04:14:33;;;;;;;1.33;0.70;;;;;;;16.03;100.00;99556.28;4959715;28;20463;-55
2021/08/01 04:16:59;;;;;;;0.40;0.20;;;;;;;16.48;100.00;99562.38;4962520;28;20554;-55
2021/08/01 04:19:26;;;;;;;0.40;0.20;;;;;;;16.30;100.00;99562.56;4961342;28;20952;-55
2021/08/01 04:21:53;;;;;;;0.40;0.20;;;;;;;16.29;100.00;99566.22;4949650;28;20460;-55
2021/08/01 04:24:19;;;;;;;0.40;0.30;;;;;;;16.36;100.00;99564.03;4963212;28;20485;-55
2021/08/01 04:26:46;;;;;;;0.40;0.20;;;;;;;16.32;100.00;99561.66;4955939;28;20479;-56
2021/08/01 04:29:13;;;;;;;0.40;0.20;;;;;;;16.41;100.00;99569.94;4959494;28;20525;-55
2021/08/01 04:31:39;;;;;;;0.40;0.20;;;;;;;16.40;100.00;99567.34;4948797;28;20876;-55
2021/08/01 04:34:06;;;;;;;0.53;0.53;;;;;;;16.17;100.00;99569.72;4960741;28;20954;-55
2021/08/01 04:36:32;;;;;;;0.40;0.20;;;;;;;16.21;100.00;99559.63;4955537;28;20548;-55
2021/08/01 04:38:59;;;;;;;0.40;0.20;;;;;;;16.33;100.00;99564.22;4948794;28;20500;-55
2021/08/01 04:41:26;;;;;;;0.40;0.40;;;;;;;16.29;100.00;99563.53;4959850;28;20466;-55
2021/08/01 04:43:52;;;;;;;0.40;0.20;;;;;;;16.35;100.00;99559.63;4949751;28;20459;-56
2021/08/01 04:46:19;;;;;;;0.40;0.20;;;;;;;16.13;100.00;99561.94;4949854;28;20845;-55
2021/08/01 04:48:46;;;;;;;0.40;0.20;;;;;;;16.33;100.00;99561.53;4958518;28;20459;-56
2021/08/01 04:51:12;;;;;;;0.40;0.20;;;;;;;15.78;100.00;99572.19;4953145;28;20523;-56
2021/08/01 04:53:39;;;;;;;0.40;0.20;;;;;;;16.17;100.00;99569.72;4957441;28;20464;-55
2021/08/01 04:56:09;;;;;;;0.40;0.20;;;;;;;16.18;100.00;99579.47;4945720;28;20508;-55
2021/08/01 04:58:36;;;;;;;0.40;0.20;;;;;;;16.18;100.00;99586.66;4961540;28;20542;-55
2021/08/01 05:01:13;;;;;;;0.40;0.20;;;;;;;16.25;100.00;99579.94;4958562;28;20455;-55
2021/08/01 05:03:41;;;;;;;0.50;0.40;;;;;;;16.49;100.00;99583.75;4952564;28;20523;-55
2021/08/01 05:06:08;;;;;;;0.40;0.20;;;;;;;16.55;100.00;99577.09;4957177;28;20458;-56
2021/08/01 05:08:35;;;;;;;0.40;0.20;;;;;;;16.50;100.00;99580.09;4947671;28;20531;-56
2021/08/01 05:11:02;;;;;;;0.40;0.20;;;;;;;16.54;100.00;99584.28;4940526;28;20460;-55
2021/08/01 05:13:29;;;;;;;0.97;0.87;;;;;;;16.62;100.00;99574.91;4958039;28;20455;-55
2021/08/01 05:15:56;;;;;;;0.40;0.30;;;;;;;16.65;100.00;99574.69;4957200;28;20451;-55
2021/08/01 05:18:22;;;;;;;0.40;0.20;;;;;;;16.72;100.00;99570.66;4953254;28;20501;-56
2021/08/01 05:20:49;;;;;;;0.40;0.20;;;;;;;16.75;100.00;99575.84;4950218;28;20506;-55
2021/08/01 05:23:16;;;;;;;0.40;0.20;;;;;;;16.75;100.00;99582.09;4966828;28;20454;-56
2021/08/01 05:25:43;;;;;;;0.73;0.73;;;;;;;16.79;100.00;99577.38;4972910;28;20450;-55
2021/08/01 05:28:10;;;;;;;0.70;0.70;;;;;;;16.85;100.00;99583.19;4973549;28;20844;-55
2021/08/01 05:30:36;;;;;;;0.50;0.40;;;;;;;17.05;100.00;99579.19;4973425;28;20466;-55
2021/08/01 05:33:07;;;;;;;0.40;0.30;;;;;;;17.20;100.00;99577.31;4973658;28;20524;-56
2021/08/01 05:35:38;;;;;;;0.40;0.20;;;;;;;17.14;100.00;99572.34;4973588;28;20501;-55
2021/08/01 05:38:05;;;;;;;0.43;0.30;;;;;;;17.07;100.00;99571.03;4968664;28;20506;-55
2021/08/01 05:40:32;;;;;;;1.10;0.30;;;;;;;17.12;100.00;99566.19;4971268;28;20546;-56
2021/08/01 05:43:02;;;;;;;0.40;0.20;;;;;;;17.22;100.00;99574.50;4973362;28;20458;-56
2021/08/01 05:45:29;;;;;;;0.40;0.20;;;;;;;17.31;100.00;99581.97;4961299;28;20545;-56
2021/08/01 05:47:55;;;;;;;0.50;0.30;;;;;;;17.33;100.00;99586.25;4952744;28;20519;-55
2021/08/01 05:50:22;;;;;;;0.40;0.30;;;;;;;17.34;100.00;99590.66;4969235;28;20455;-56
2021/08/01 05:52:49;;;;;;;0.40;0.20;;;;;;;17.43;100.00;99592.75;4958665;28;20455;-55
2021/08/01 05:55:15;;;;;;;0.60;0.50;;;;;;;17.56;100.00;99589.22;4958541;28;20462;-55
2021/08/01 05:57:42;;;;;;;0.40;0.20;;;;;;;17.45;100.00;99598.88;4960739;28;20495;-55
2021/08/01 06:00:09;;;;;;;0.40;0.20;;;;;;;17.62;100.00;99597.72;4961084;28;20450;-55
2021/08/01 06:02:36;;;;;;;0.40;0.20;;;;;;;17.74;99.91;99593.34;4955376;28;21065;-55
2021/08/01 06:05:04;;;;;;;0.40;0.20;;;;;;;17.38;100.00;99588.63;4962259;28;20455;-54
2021/08/01 06:07:30;;;;;;;0.40;0.20;;;;;;;17.40;100.00;99586.69;4960927;28;20530;-54
2021/08/01 06:09:57;;;;;;;29.93;3.70;;;;;;;17.48;99.94;99595.09;4961621;28;20454;-56
2021/08/01 06:12:24;;;;;;;0.50;0.40;;;;;;;17.56;99.13;99592.75;4963625;28;20451;-54
2021/08/01 06:14:51;;;;;;;1.03;1.03;;;;;;;17.53;99.77;99594.78;4966065;28;21031;-56
2021/08/01 06:17:18;;;;;;;1.37;1.27;;;;;;;17.62;99.90;99599.53;4959748;28;20474;-54
2021/08/01 06:19:45;;;;;;;0.40;0.20;;;;;;;17.67;100.00;99600.91;4967555;28;20489;-54
2021/08/01 06:22:15;;;;;;;0.40;0.20;;;;;;;17.64;99.61;99586.84;4960599;28;20538;-56
2021/08/01 06:24:41;;;;;;;0.50;0.50;;;;;;;18.02;98.65;99594.97;4962909;28;20487;-54
2021/08/01 06:27:08;;;;;;;0.40;0.20;;;;;;;17.82;98.81;99596.38;4960003;28;20474;-54
2021/08/01 06:29:34;;;;;;;0.50;0.30;;;;;;;17.69;99.60;99603.56;4959288;28;20510;-54
2021/08/01 06:32:02;;;;;;;0.93;0.93;;;;;;;17.84;98.88;99601.66;4962393;28;20451;-54
2021/08/01 06:34:28;;;;;;;0.40;0.30;;;;;;;17.94;98.48;99606.25;4961171;28;20801;-54
2021/08/01 06:36:55;;;;;;;0.40;0.20;;;;;;;18.07;98.06;99600.88;4953583;28;20553;-54
2021/08/01 06:39:21;;;;;;;0.63;0.57;;;;;;;18.12;97.40;99603.25;4963548;28;20525;-51
2021/08/01 06:41:48;;;;;;;0.40;0.20;;;;;;;17.95;98.02;99607.97;4953140;28;20452;-52
2021/08/01 06:44:15;;;;;;;0.40;0.20;;;;;;;18.13;97.97;99616.59;4951301;28;20976;-52
2021/08/01 06:46:41;;;;;;;0.40;0.20;;;;;;;18.32;97.29;99610.75;4949739;28;20510;-52
2021/08/01 06:49:08;;;;;;;0.40;0.30;;;;;;;18.45;97.07;99613.44;4949591;28;20447;-52
2021/08/01 06:51:38;;;;;;;0.40;0.20;;;;;;;18.57;96.87;99618.78;4955822;28;20475;-52
2021/08/01 06:54:04;;;;;;;0.40;0.20;;;;;;;18.70;95.61;99618.81;4956268;28;20482;-52
2021/08/01 06:56:31;;;;;;;0.40;0.20;;;;;;;18.74;95.88;99620.28;4958964;28;20462;-52
2021/08/01 06:58:57;;;;;;;0.40;0.20;;;;;;;19.01;95.39;99625.47;4952785;28;20483;-52
2021/08/01 07:01:24;;;;;;;0.40;0.30;;;;;;;19.27;93.28;99622.69;4961902;28;20462;-52
2021/08/01 07:03:51;;;;;;;1.27;1.17;;;;;;;19.21;92.50;99615.94;4956267;28;20495;-53
2021/08/01 07:06:18;;;;;;;0.40;0.27;;;;;;;19.48;92.74;99615.69;4959425;28;21002;-54
2021/08/01 07:08:44;;;;;;;0.40;0.20;;;;;;;19.41;91.42;99619.81;4957976;28;21019;-52
2021/08/01 07:11:11;;;;;;;0.50;0.43;;;;;;;19.57;92.57;99620.38;4974326;28;20478;-53
2021/08/01 07:13:38;;;;;;;0.40;0.20;;;;;;;19.64;91.62;99620.78;4972681;28;20978;-51
2021/08/01 07:16:05;;;;;;;0.40;0.30;;;;;;;19.66;89.09;99614.28;4973974;28;20466;-52
2021/08/01 07:18:32;;;;;;;0.40;0.20;;;;;;;19.71;90.41;99617.47;4975684;28;20497;-52
2021/08/01 07:20:59;;;;;;;0.40;0.20;;;;;;;19.93;88.43;99622.09;4975612;28;20484;-52
2021/08/01 07:23:27;;;;;;;0.50;0.30;;;;;;;19.86;88.51;99618.13;4974584;28;20528;-52
2021/08/01 07:25:53;;;;;;;0.40;0.30;;;;;;;19.97;88.09;99612.75;4967867;28;20854;-52
2021/08/01 07:28:20;;;;;;;0.53;0.53;;;;;;;19.99;88.64;99613.50;4972050;28;20520;-52
2021/08/01 07:30:47;;;;;;;0.40;0.20;;;;;;;19.98;88.41;99609.09;4961133;28;20467;-53
2021/08/01 07:33:13;;;;;;;4.83;0.83;;;;;;;20.01;87.40;99613.38;4953425;28;20460;-52
2021/08/01 07:35:42;;;;;;;0.40;0.20;;;;;;;20.30;87.17;99608.41;4958361;28;20454;-52
2021/08/01 07:38:08;;;;;;;0.50;0.40;;;;;;;19.83;86.69;99621.94;4961452;28;20499;-51
2021/08/01 07:40:35;;;;;;;0.40;0.20;;;;;;;19.76;87.30;99611.75;4957045;28;20905;-52
2021/08/01 07:43:02;;;;;;;0.40;0.20;;;;;;;20.23;87.95;99616.09;4942514;28;20498;-52
2021/08/01 07:45:33;;;;;;;0.50;0.50;;;;;;;20.22;86.08;99613.53;4962638;28;20509;-53
2021/08/01 07:48:01;;;;;;;2.93;1.13;;;;;;;20.46;85.27;99614.31;4954636;28;20538;-52
2021/08/01 07:50:28;;;;;;;0.40;0.20;;;;;;;20.40;84.88;99609.38;4958860;28;20456;-51
2021/08/01 07:52:55;;;;;;;0.57;0.40;;;;;;;20.37;84.02;99610.47;4960373;28;20498;-53
2021/08/01 07:55:22;;;;;;;0.50;0.43;;;;;;;20.57;83.55;99611.63;4975626;28;20514;-52
2021/08/01 07:57:50;;;;;;;0.40;0.20;;;;;;;20.31;83.71;99619.06;4972065;28;20832;-52
2021/08/01 08:00:17;;;;;;;0.40;0.20;;;;;;;20.28;84.43;99615.72;4971205;28;20501;-54
2021/08/01 08:02:44;;;;;;;0.40;0.20;;;;;;;20.20;85.50;99619.06;4953745;28;20460;-52
2021/08/01 08:05:13;;;;;;;0.40;0.20;;;;;;;20.44;84.52;99621.69;4954889;28;20455;-53
2021/08/01 08:07:40;;;;;;;0.40;0.20;;;;;;;20.51;85.23;99622.03;4958854;28;20513;-53
2021/08/01 08:10:09;;;;;;;0.40;0.20;;;;;;;20.36;85.45;99622.25;4958706;28;20451;-52
2021/08/01 08:12:35;;;;;;;0.40;0.20;;;;;;;20.53;83.78;99620.94;4958400;28;20456;-54
2021/08/01 08:15:05;;;;;;;0.50;0.30;;;;;;;20.75;83.73;99622.75;4959716;28;20451;-55
2021/08/01 08:17:33;;;;;;;0.40;0.20;;;;;;;20.63;83.94;99616.50;4949897;28;20474;-55
2021/08/01 08:20:09;;;;;;;0.40;0.20;;;;;;;20.75;83.39;99622.75;4962078;28;20490;-54
2021/08/01 08:22:36;;;;;;;1.83;0.53;;;;;;;20.86;83.04;99616.50;4958375;28;20518;-54
2021/08/01 08:25:05;;;;;;;0.40;0.20;;;;;;;20.87;82.91;99619.06;4951918;28;20464;-55
2021/08/01 08:27:32;;;;;;;4.40;1.07;;;;;;;20.88;83.50;99625.31;4956098;28;20476;-55
2021/08/01 08:29:59;;;;;;;0.50;0.40;;;;;;;20.77;83.28;99623.50;4967000;28;20524;-54
2021/08/01 08:32:25;;;;;;;0.40;0.20;;;;;;;20.91;82.59;99625.06;4963900;28;20792;-55
2021/08/01 08:34:56;;;;;;;0.40;0.20;;;;;;;20.90;83.46;99626.06;4959316;28;20455;-54
2021/08/01 08:37:22;;;;;;;0.40;0.30;;;;;;;20.96;82.26;99622.84;4956214;28;20509;-55
2021/08/01 08:39:49;;;;;;;0.40;0.20;;;;;;;21.14;82.21;99628.59;4960356;28;20542;-54
2021/08/01 08:42:16;;;;;;;0.40;0.20;;;;;;;21.33;80.76;99625.22;4957655;28;20458;-55
2021/08/01 08:44:44;;;;;;;1.70;0.40;;;;;;;21.48;80.64;99632.91;4954586;28;20494;-54
2021/08/01 08:47:17;;;;;;;0.40;0.30;;;;;;;21.42;81.05;99629.88;4963874;28;20482;-54
2021/08/01 08:49:48;;;;;;;1.90;0.40;;;;;;;21.74;79.85;99630.69;4950402;28;20447;-54
2021/08/01 08:52:16;;;;;;;1.33;1.33;;;;;;;22.00;77.71;99636.56;4953561;28;20510;-54
2021/08/01 08:54:49;;;;;;;0.50;0.50;;;;;;;22.09;77.69;99629.56;4959910;28;20466;-55
2021/08/01 08:57:24;;;;;;;0.40;0.30;;;;;;;22.06;78.95;99625.25;4952112;28;21063;-55
2021/08/01 09:00:05;;;;;;;0.40;0.20;;;;;;;21.88;77.64;99632.22;4960424;28;20519;-54
2021/08/01 09:02:34;;;;;;;0.40;0.20;;;;;;;21.85;76.86;99627.94;4957385;28;20455;-55
2021/08/01 09:05:03;;;;;;;0.40;0.20;;;;;;;21.53;75.96;99624.44;4946101;28;20452;-54
2021/08/01 09:07:30;;;;;;;0.50;0.30;;;;;;;21.85;75.81;99627.09;4950909;28;20523;-54
2021/08/01 09:09:56;;;;;;;0.40;0.27;;;;;;;21.89;75.97;99633.94;4955963;28;20454;-55
2021/08/01 09:12:23;;;;;;;0.50;0.40;;;;;;;22.04;76.05;99634.47;4955033;28;20463;-55
2021/08/01 09:15:08;;;;;;;0.40;0.20;;;;;;;22.24;74.86;99640.91;4962377;28;20463;-54
2021/08/01 09:17:37;;;;;;;0.40;0.20;;;;;;;22.34;74.84;99628.25;4952145;28;20483;-55
2021/08/01 09:20:19;;;;;;;0.40;0.20;;;;;;;22.50;75.93;99631.34;4949905;28;20850;-54
2021/08/01 09:23:01;;;;;;;0.50;0.40;;;;;;;23.23;72.19;99638.28;4973464;28;20513;-54
2021/08/01 09:25:32;;;;;;;0.40;0.20;;;;;;;22.89;73.76;99640.50;4973483;28;20488;-55
2021/08/01 09:28:09;;;;;;;0.40;0.30;;;;;;;23.17;74.54;99638.00;4972181;28;20606;-55
2021/08/01 09:31:04;;;;;;;0.40;0.20;;;;;;;22.67;72.57;99644.22;4973500;28;20497;-55
2021/08/01 09:33:38;;;;;;;0.40;0.30;;;;;;;22.67;74.69;99636.09;4973505;28;20454;-55
2021/08/01 09:36:06;;;;;;;0.40;0.30;;;;;;;22.72;74.31;99644.66;4973627;28;20864;-55
2021/08/01 09:38:46;;;;;;;0.40;0.20;;;;;;;22.74;72.96;99637.25;4976800;28;20569;-55
2021/08/01 09:41:13;;;;;;;0.40;0.30;;;;;;;22.91;73.67;99635.78;4977746;28;20450;-54
2021/08/01 09:43:52;;;;;;;0.40;0.20;;;;;;;23.61;70.20;99633.91;4975332;28;20939;-55
2021/08/01 09:46:20;;;;;;;1.27;0.50;;;;;;;23.70;71.27;99627.63;4970834;28;20449;-55
2021/08/01 09:49:09;;;;;;;0.50;0.30;;;;;;;23.53;71.13;99629.16;4978020;28;20509;-55
2021/08/01 09:51:44;;;;;;;0.40;0.20;;;;;;;23.09;69.79;99624.28;4979031;28;20540;-55
2021/08/01 09:54:12;;;;;;;0.40;0.30;;;;;;;23.16;70.52;99619.97;4978767;28;20493;-53
2021/08/01 09:56:50;;;;;;;0.50;0.40;;;;;;;23.55;70.53;99612.72;4974339;28;20478;-54
2021/08/01 09:59:19;;;;;;;0.40;0.30;;;;;;;23.83;69.35;99611.03;4958284;28;20549;-53
2021/08/01 10:01:54;;;;;;;0.40;0.20;;;;;;;24.12;69.43;99602.81;4966998;28;20934;-54
2021/08/01 10:04:29;;;;;;;0.40;0.20;;;;;;;23.94;68.61;99598.16;4977808;28;20428;-53
2021/08/01 10:07:04;;;;;;;0.40;0.20;;;;;;;24.62;66.38;99595.22;4976880;28;20502;-52
2021/08/01 10:09:32;;;;;;;0.40;0.20;;;;;;;24.75;66.76;99584.88;4976706;28;20442;-53
2021/08/01 10:11:59;;;;;;;0.40;0.30;;;;;;;25.23;62.50;99582.88;4977146;28;20514;-53
2021/08/01 10:14:27;;;;;;;0.50;0.30;;;;;;;24.98;61.61;99588.03;4972537;28;20501;-53
2021/08/01 10:16:55;;;;;;;0.40;0.30;;;;;;;25.02;62.25;99586.75;4976841;28;20481;-53
2021/08/01 10:19:21;;;;;;;0.50;0.30;;;;;;;24.21;63.81;99580.22;4976768;28;20489;-52
2021/08/01 10:21:50;;;;;;;0.40;0.20;;;;;;;24.52;64.67;99584.41;4977268;28;20456;-52
2021/08/01 10:24:22;;;;;;;0.40;0.20;;;;;;;25.01;64.12;99590.47;4976622;28;20451;-53
2021/08/01 10:26:52;;;;;;;0.40;0.20;;;;;;;24.89;62.60;99596.25;4976974;28;20478;-52
2021/08/01 10:29:47;;;;;;;0.40;0.30;;;;;;;24.68;64.99;99593.78;4976617;28;20483;-53
2021/08/01 10:32:17;;;;;;;0.50;0.40;;;;;;;24.23;64.63;99595.34;4976210;28;20832;-53
2021/08/01 10:34:55;;;;;;;0.40;0.30;;;;;;;23.74;66.92;99593.78;4976314;28;21023;-53
2021/08/01 10:37:34;;;;;;;0.40;0.20;;;;;;;23.10;70.60;99594.31;4976196;28;20517;-53
2021/08/01 10:40:07;;;;;;;0.40;0.20;;;;;;;22.83;73.69;99592.25;4976412;28;20572;-52
2021/08/01 10:42:37;;;;;;;1.53;1.53;;;;;;;22.60;74.09;99597.00;4976356;28;20450;-53
2021/08/01 10:45:05;;;;;;;0.40;0.30;;;;;;;22.69;73.78;99596.19;4965018;28;20447;-53
2021/08/01 10:47:33;;;;;;;0.40;0.20;;;;;;;22.81;73.55;99587.94;4976313;28;20509;-53
2021/08/01 10:50:07;;;;;;;0.40;0.20;;;;;;;22.87;73.65;99596.38;4976037;28;20509;-53
2021/08/01 10:52:34;;;;;;;0.50;0.30;;;;;;;23.35;70.43;99582.91;4976351;28;20497;-53
2021/08/01 10:55:06;;;;;;;0.40;0.20;;;;;;;23.49;66.48;99570.75;4976097;28;20465;-53
2021/08/01 10:57:33;;;;;;;0.40;0.20;;;;;;;23.41;66.88;99572.47;4972941;28;20886;-53
2021/08/01 11:00:04;;;;;;;0.53;0.53;;;;;;;24.03;64.74;99569.28;4976749;28;20494;-53
2021/08/01 11:02:34;;;;;;;0.40;0.20;;;;;;;24.40;60.82;99569.31;4976437;28;20501;-53
2021/08/01 11:05:36;;;;;;;0.40;0.20;;;;;;;24.66;57.85;99577.59;4976168;28;20451;-53
2021/08/01 11:08:03;;;;;;;1.07;1.03;;;;;;;24.55;57.81;99580.56;4976224;28;20441;-53
2021/08/01 11:10:30;;;;;;;1.50;0.97;;;;;;;24.26;59.19;99577.94;4976140;28;20953;-53
2021/08/01 11:12:57;;;;;;;0.40;0.20;;;;;;;24.11;61.69;99573.94;4975667;28;20869;-53
2021/08/01 11:15:56;;;;;;;0.40;0.30;;;;;;;24.00;62.58;99582.31;4970305;28;20930;-53
2021/08/01 11:18:40;;;;;;;0.40;0.20;;;;;;;24.07;61.76;99578.84;4924474;28;20482;-53
2021/08/01 11:21:09;;;;;;;0.47;0.37;;;;;;;23.97;59.96;99577.13;4975926;28;20501;-53
2021/08/01 11:23:48;;;;;;;0.40;0.30;;;;;;;24.34;59.63;99569.91;4975587;28;20820;-53
2021/08/01 11:26:19;;;;;;;0.40;0.20;;;;;;;24.57;59.58;99567.66;4953022;28;20485;-54
2021/08/01 11:29:03;;;;;;;0.40;0.20;;;;;;;24.58;59.14;99565.81;4975979;28;20524;-53
2021/08/01 11:31:30;;;;;;;0.40;0.20;;;;;;;24.87;58.68;99560.19;4976051;28;20454;-52
2021/08/01 11:34:16;;;;;;;0.50;0.40;;;;;;;25.21;58.14;99554.94;4975637;28;20454;-53
2021/08/01 11:36:43;;;;;;;0.40;0.20;;;;;;;25.21;55.50;99554.94;4975269;28;20541;-53
2021/08/01 11:39:10;;;;;;;0.40;0.27;;;;;;;25.24;56.58;99549.22;4975542;28;20451;-53
2021/08/01 11:41:40;;;;;;;0.40;0.30;;;;;;;25.65;54.93;99553.16;4975326;28;20517;-53
2021/08/01 11:44:14;;;;;;;0.40;0.20;;;;;;;25.72;56.83;99546.06;4970047;28;20455;-53
2021/08/01 11:46:50;;;;;;;0.40;0.20;;;;;;;25.61;56.92;99554.47;4971455;28;20983;-53